Time;durP1;ratioP1;P1;durP2;ratioP2;P2;SDS_P1;SDS_P2;PMS_P1;PMS_P2;Temp;Humidity;BMP_temperature;BMP_pressure;BME280_temperature;BME280_humidity;BME280_pressure;Samples;Min_cycle;Max_cycle;Signal;HPM_P1;HPM_P2
2022/08/31 00:04:08;;;;;;;6.35;2.28;;;19.40;99.90;;;;;;5056265;28;20037;-73
2022/08/31 00:06:35;;;;;;;6.45;2.30;;;19.40;99.90;;;;;;5056195;28;20056;-73
2022/08/31 00:09:03;;;;;;;4.70;1.95;;;19.30;99.90;;;;;;5056154;28;20032;-75
2022/08/31 00:11:30;;;;;;;7.07;2.40;;;19.40;99.90;;;;;;5055938;28;20025;-74
2022/08/31 00:13:59;;;;;;;8.43;2.60;;;19.40;99.90;;;;;;5056367;28;20029;-75
2022/08/31 00:16:26;;;;;;;5.57;2.42;;;19.30;99.90;;;;;;5056126;28;20413;-73
2022/08/31 00:18:53;;;;;;;8.57;2.85;;;19.30;99.90;;;;;;5055979;28;20024;-74
2022/08/31 00:21:21;;;;;;;3.83;2.40;;;19.40;99.90;;;;;;5056451;28;20021;-74
2022/08/31 00:23:48;;;;;;;3.83;2.22;;;19.40;99.90;;;;;;5056185;28;20480;-73
2022/08/31 00:26:15;;;;;;;7.85;2.50;;;19.40;99.90;;;;;;5055569;28;20040;-72
2022/08/31 00:28:41;;;;;;;7.57;2.50;;;19.40;99.90;;;;;;5054498;28;20032;-73
2022/08/31 00:31:07;;;;;;;3.72;2.42;;;19.60;99.90;;;;;;5056009;28;20039;-74
2022/08/31 00:33:35;;;;;;;4.88;2.47;;;19.40;99.90;;;;;;5070859;28;20068;-73
2022/08/31 00:36:06;;;;;;;5.82;2.50;;;19.30;99.90;;;;;;5055837;28;20056;-73
2022/08/31 00:38:33;;;;;;;7.15;2.50;;;19.30;99.90;;;;;;5054347;28;20029;-72
2022/08/31 00:40:59;;;;;;;8.13;2.35;;;19.40;99.90;;;;;;5054278;28;20013;-72
2022/08/31 00:43:44;;;;;;;6.63;2.78;;;19.40;99.90;;;;;;5054404;28;20063;-72
2022/08/31 00:46:13;;;;;;;2.80;2.25;;;19.40;99.90;;;;;;5058020;28;20097;-72
2022/08/31 00:49:08;;;;;;;6.97;2.15;;;19.40;99.90;;;;;;5067609;28;20452;-73
2022/08/31 00:51:46;;;;;;;12.98;2.92;;;19.20;99.90;;;;;;5053641;28;20048;-72
2022/08/31 00:54:15;;;;;;;6.22;2.50;;;19.00;99.90;;;;;;5070470;28;20086;-72
2022/08/31 00:56:43;;;;;;;15.02;2.45;;;19.00;99.90;;;;;;5054888;28;20036;-72
2022/08/31 00:59:11;;;;;;;8.65;2.65;;;19.10;99.90;;;;;;5054114;28;20025;-72
2022/08/31 01:01:38;;;;;;;5.85;2.42;;;19.10;99.90;;;;;;5055199;28;20087;-75
2022/08/31 01:04:04;;;;;;;5.32;2.05;;;19.00;99.90;;;;;;5055150;28;20055;-73
2022/08/31 01:06:30;;;;;;;8.52;2.10;;;18.90;99.90;;;;;;5055314;28;20377;-73
2022/08/31 01:08:58;;;;;;;7.60;2.97;;;19.00;99.90;;;;;;5053484;28;20025;-72
2022/08/31 01:11:24;;;;;;;3.47;2.55;;;19.00;99.90;;;;;;5054391;28;20040;-73
2022/08/31 01:13:50;;;;;;;3.80;1.90;;;19.00;99.90;;;;;;5054954;28;20032;-73
2022/08/31 01:16:24;;;;;;;4.97;2.08;;;19.00;99.90;;;;;;5055161;28;20036;-73
2022/08/31 01:18:52;;;;;;;5.05;2.50;;;19.00;99.90;;;;;;5053654;28;20029;-73
2022/08/31 01:21:36;;;;;;;4.50;2.50;;;19.10;99.90;;;;;;5054922;28;20107;-73
2022/08/31 01:24:03;;;;;;;8.25;2.83;;;18.90;99.90;;;;;;5054640;28;20037;-74
2022/08/31 01:26:32;;;;;;;5.40;2.50;;;18.90;99.90;;;;;;5037196;28;20021;-73
2022/08/31 01:29:02;;;;;;;4.22;2.50;;;18.80;99.90;;;;;;5054798;28;20033;-74
2022/08/31 01:31:49;;;;;;;4.53;2.85;;;18.70;99.90;;;;;;5054783;28;20067;-73
2022/08/31 01:34:15;;;;;;;10.63;2.70;;;18.90;99.90;;;;;;5053226;28;20068;-75
2022/08/31 01:36:43;;;;;;;7.32;2.90;;;19.00;99.90;;;;;;5054766;28;20025;-73
2022/08/31 01:39:10;;;;;;;5.43;2.42;;;18.90;99.90;;;;;;5069760;28;20049;-73
2022/08/31 01:41:42;;;;;;;17.65;2.70;;;18.90;99.90;;;;;;5054618;28;20393;-74
2022/08/31 01:44:09;;;;;;;;;;;18.80;99.90;;;;;;5053648;28;20021;-73
2022/08/31 01:46:35;;;;;;;5.95;2.83;;;18.90;99.90;;;;;;5069717;28;19957;-72
2022/08/31 01:49:01;;;;;;;3.97;2.92;;;18.80;99.90;;;;;;5053251;28;20473;-73
2022/08/31 01:51:27;;;;;;;4.65;2.58;;;18.70;99.90;;;;;;5053027;28;20027;-73
2022/08/31 01:53:54;;;;;;;3.08;2.30;;;18.80;99.90;;;;;;5054034;28;20017;-73
2022/08/31 01:56:24;;;;;;;4.43;2.25;;;18.70;99.90;;;;;;5053948;28;20033;-72
2022/08/31 01:58:50;;;;;;;8.98;2.47;;;18.50;99.90;;;;;;5069675;28;20025;-75
2022/08/31 02:01:33;;;;;;;6.70;2.97;;;18.60;99.90;;;;;;5054012;28;20446;-75
2022/08/31 02:04:00;;;;;;;7.47;2.45;;;18.60;99.90;;;;;;5052807;28;20299;-76
2022/08/31 02:06:26;;;;;;;8.52;2.97;;;18.60;99.90;;;;;;5069270;28;20029;-73
2022/08/31 02:08:52;;;;;;;9.82;2.70;;;18.70;99.90;;;;;;5053866;28;20025;-73
2022/08/31 02:11:18;;;;;;;5.15;2.38;;;18.70;99.90;;;;;;5053991;28;20517;-73
2022/08/31 02:13:45;;;;;;;5.57;2.65;;;18.50;99.90;;;;;;5069162;28;20107;-73
2022/08/31 02:16:11;;;;;;;7.85;2.33;;;18.50;99.90;;;;;;5069158;28;20025;-73
2022/08/31 02:18:38;;;;;;;3.33;2.78;;;18.40;99.90;;;;;;5052480;28;20104;-74
2022/08/31 02:21:04;;;;;;;4.65;2.53;;;18.40;99.90;;;;;;5052492;28;20184;-75
2022/08/31 02:23:30;;;;;;;4.25;2.65;;;18.30;99.90;;;;;;5067827;28;20021;-73
2022/08/31 02:25:56;;;;;;;4.93;3.05;;;18.40;99.90;;;;;;5052058;28;20029;-73
2022/08/31 02:28:23;;;;;;;5.43;3.10;;;18.40;99.90;;;;;;5053633;28;20076;-74
2022/08/31 02:30:51;;;;;;;6.13;3.00;;;18.30;99.90;;;;;;5052159;28;20025;-73
2022/08/31 02:33:17;;;;;;;7.20;2.92;;;18.30;99.90;;;;;;5052459;28;20524;-74
2022/08/31 02:35:43;;;;;;;6.18;2.85;;;18.20;99.90;;;;;;5052280;28;20116;-73
2022/08/31 02:38:09;;;;;;;7.10;3.20;;;18.30;99.90;;;;;;5053401;28;20029;-78
2022/08/31 02:40:37;;;;;;;9.88;2.90;;;18.30;99.90;;;;;;5052097;28;20029;-73
2022/08/31 02:43:04;;;;;;;6.20;2.67;;;18.40;99.90;;;;;;5052184;28;20013;-72
2022/08/31 02:45:30;;;;;;;6.15;2.60;;;18.30;99.90;;;;;;5053468;28;20044;-73
2022/08/31 02:48:05;;;;;;;6.00;2.75;;;18.40;99.90;;;;;;5053032;28;20511;-74
2022/08/31 02:50:43;;;;;;;7.78;2.60;;;18.40;99.90;;;;;;5052063;28;20037;-73
2022/08/31 02:53:09;;;;;;;;;;;18.40;99.90;;;;;;5053230;28;20020;-72
2022/08/31 02:55:36;;;;;;;5.40;2.80;;;18.40;99.90;;;;;;5085144;28;19913;-73
2022/08/31 02:58:02;;;;;;;7.90;2.63;;;18.50;99.90;;;;;;5068199;28;20037;-73
2022/08/31 03:00:29;;;;;;;7.15;3.10;;;18.50;99.90;;;;;;5052028;28;20025;-74
2022/08/31 03:02:56;;;;;;;6.72;2.53;;;18.50;99.90;;;;;;5051773;28;20051;-74
2022/08/31 03:05:22;;;;;;;5.95;2.38;;;18.60;99.90;;;;;;5052046;28;20021;-73
2022/08/31 03:07:49;;;;;;;5.38;2.67;;;18.50;99.90;;;;;;5052723;28;20456;-73
2022/08/31 03:10:19;;;;;;;4.43;3.05;;;18.50;99.90;;;;;;5053025;28;20420;-73
2022/08/31 03:12:47;;;;;;;5.20;2.50;;;18.50;99.90;;;;;;5068193;28;20111;-73
2022/08/31 03:15:14;;;;;;;10.55;3.20;;;18.60;99.90;;;;;;5051896;28;20500;-74
2022/08/31 03:17:41;;;;;;;7.45;2.75;;;18.60;99.90;;;;;;5034922;28;20500;-73
2022/08/31 03:20:09;;;;;;;6.75;2.72;;;18.40;99.90;;;;;;5051289;28;20481;-73
2022/08/31 03:22:35;;;;;;;6.10;2.78;;;18.50;99.90;;;;;;5057616;28;20035;-73
2022/08/31 03:25:02;;;;;;;7.10;3.10;;;18.40;99.90;;;;;;5051424;28;20033;-73
2022/08/31 03:27:29;;;;;;;3.50;2.50;;;18.30;99.90;;;;;;5051285;28;20021;-73
2022/08/31 03:29:55;;;;;;;7.43;2.75;;;17.90;99.90;;;;;;5051760;28;20481;-73
2022/08/31 03:32:26;;;;;;;4.10;2.25;;;18.00;99.90;;;;;;5035368;28;20018;-73
2022/08/31 03:34:54;;;;;;;6.05;2.83;;;18.10;99.90;;;;;;5050614;28;20047;-73
2022/08/31 03:37:20;;;;;;;5.35;2.92;;;18.00;99.90;;;;;;5052573;28;20021;-72
2022/08/31 03:39:47;;;;;;;3.92;2.90;;;18.20;99.90;;;;;;5051384;28;20029;-74
2022/08/31 03:42:13;;;;;;;5.53;2.83;;;18.10;99.90;;;;;;5067806;28;20036;-73
2022/08/31 03:44:39;;;;;;;7.43;2.92;;;18.00;99.90;;;;;;5068174;28;20033;-74
2022/08/31 03:47:18;;;;;;;3.90;2.60;;;18.00;99.90;;;;;;5050968;28;20013;-75
2022/08/31 03:49:44;;;;;;;3.83;3.22;;;18.00;99.90;;;;;;5051066;28;20039;-73
2022/08/31 03:52:20;;;;;;;5.13;2.72;;;18.20;99.90;;;;;;5050973;28;20029;-73
2022/08/31 03:54:51;;;;;;;4.80;2.75;;;18.20;99.90;;;;;;5050887;28;20029;-74
2022/08/31 03:57:18;;;;;;;6.63;2.70;;;18.00;99.90;;;;;;5050922;28;20453;-73
2022/08/31 03:59:43;;;;;;;3.08;2.72;;;17.80;99.90;;;;;;5051135;28;20116;-73
2022/08/31 04:02:19;;;;;;;4.35;2.75;;;17.80;99.90;;;;;;5052251;28;20032;-73
2022/08/31 04:05:08;;;;;;;7.75;2.42;;;17.80;99.90;;;;;;5014328;28;20025;-73
2022/08/31 04:07:54;;;;;;;7.75;2.75;;;17.80;99.90;;;;;;5052269;28;20117;-73
2022/08/31 04:10:50;;;;;;;9.13;2.60;;;17.80;99.90;;;;;;5028836;28;20040;-74
2022/08/31 04:13:39;;;;;;;4.70;2.78;;;17.70;99.90;;;;;;5051748;28;20041;-73
2022/08/31 04:16:26;;;;;;;10.65;2.92;;;17.70;99.90;;;;;;5011400;28;20048;-74
2022/08/31 04:19:14;;;;;;;7.60;3.50;;;17.70;99.90;;;;;;5039476;28;20028;-74
2022/08/31 04:21:48;;;;;;;6.13;2.60;;;17.50;99.90;;;;;;5050770;28;20113;-73
2022/08/31 04:24:14;;;;;;;9.18;3.03;;;17.50;99.90;;;;;;5050884;28;20044;-76
2022/08/31 04:26:40;;;;;;;12.68;3.22;;;17.60;99.90;;;;;;5051035;28;20041;-73
2022/08/31 04:29:07;;;;;;;5.82;2.78;;;17.60;99.90;;;;;;5050569;28;20024;-76
2022/08/31 04:31:36;;;;;;;8.02;2.72;;;17.50;99.90;;;;;;5051047;28;20021;-73
2022/08/31 04:34:03;;;;;;;5.63;2.85;;;17.50;99.90;;;;;;5051477;28;20029;-73
2022/08/31 04:36:30;;;;;;;5.38;3.22;;;17.60;99.90;;;;;;5050890;28;20029;-73
2022/08/31 04:39:00;;;;;;;6.32;2.80;;;17.60;99.90;;;;;;5051862;28;20029;-74
2022/08/31 04:41:27;;;;;;;7.53;3.20;;;17.50;99.90;;;;;;5052153;28;20037;-73
2022/08/31 04:43:56;;;;;;;4.75;2.67;;;17.60;99.90;;;;;;5050554;28;20473;-73
2022/08/31 04:46:23;;;;;;;5.93;3.75;;;17.50;99.90;;;;;;5051596;28;20021;-73
2022/08/31 04:48:49;;;;;;;4.90;3.03;;;17.40;99.90;;;;;;5054019;28;20031;-73
2022/08/31 04:51:21;;;;;;;6.57;2.90;;;17.40;99.90;;;;;;5054026;28;20029;-74
2022/08/31 04:53:48;;;;;;;6.18;2.95;;;17.50;99.90;;;;;;5055399;28;20029;-73
2022/08/31 04:56:17;;;;;;;8.88;2.60;;;17.30;99.90;;;;;;5053544;28;20120;-73
2022/08/31 04:58:46;;;;;;;11.43;3.28;;;17.40;99.90;;;;;;5054021;28;20025;-73
2022/08/31 05:01:15;;;;;;;6.10;2.85;;;17.50;99.90;;;;;;5054842;28;20033;-75
2022/08/31 05:04:05;;;;;;;10.52;3.00;;;17.60;99.90;;;;;;5016975;28;20459;-74
2022/08/31 05:06:33;;;;;;;5.25;2.97;;;17.30;99.90;;;;;;5070448;28;20033;-74
2022/08/31 05:09:04;;;;;;;6.55;2.72;;;17.30;99.90;;;;;;5070155;28;20025;-73
2022/08/31 05:11:30;;;;;;;6.72;3.10;;;17.30;99.90;;;;;;5053881;28;20029;-73
2022/08/31 05:13:59;;;;;;;6.05;2.78;;;17.40;99.90;;;;;;5070164;28;20567;-73
2022/08/31 05:16:26;;;;;;;6.03;2.90;;;17.40;99.90;;;;;;5053548;28;20029;-73
2022/08/31 05:18:52;;;;;;;11.00;3.33;;;17.60;99.90;;;;;;5053666;28;20013;-73
2022/08/31 05:21:27;;;;;;;8.88;2.72;;;17.50;99.90;;;;;;5070273;28;20037;-73
2022/08/31 05:24:02;;;;;;;7.05;3.13;;;17.60;99.90;;;;;;5037261;28;20024;-75
2022/08/31 05:26:34;;;;;;;5.53;2.95;;;17.60;99.90;;;;;;5070169;28;20378;-74
2022/08/31 05:29:01;;;;;;;;;;;17.40;99.90;;;;;;5055065;28;20036;-74
2022/08/31 05:31:28;;;;;;;16.50;3.75;;;17.40;99.90;;;;;;5086591;28;20010;-75
2022/08/31 05:33:57;;;;;;;3.85;2.45;;;17.50;99.90;;;;;;5042151;28;20499;-73
2022/08/31 05:36:34;;;;;;;12.45;3.15;;;17.60;99.90;;;;;;5059641;28;20043;-74
2022/08/31 05:39:01;;;;;;;4.97;2.97;;;17.70;99.90;;;;;;5067264;28;20473;-73
2022/08/31 05:41:28;;;;;;;6.75;2.53;;;17.90;99.90;;;;;;5051303;28;20029;-73
2022/08/31 05:43:54;;;;;;;6.15;2.50;;;17.90;99.90;;;;;;5053489;28;20024;-77
2022/08/31 05:46:20;;;;;;;3.75;2.45;;;17.80;99.90;;;;;;5052320;28;20436;-72
2022/08/31 05:48:46;;;;;;;5.28;2.80;;;17.50;99.90;;;;;;5052979;28;20079;-78
2022/08/31 05:51:15;;;;;;;3.78;2.63;;;17.40;99.90;;;;;;5041882;28;20032;-75
2022/08/31 05:53:42;;;;;;;8.45;3.22;;;17.40;99.90;;;;;;5052689;28;20496;-75
2022/08/31 05:56:16;;;;;;;7.05;2.42;;;17.50;99.90;;;;;;5052372;28;20037;-74
2022/08/31 05:58:43;;;;;;;4.93;2.50;;;17.50;99.90;;;;;;5066866;28;20049;-76
2022/08/31 06:01:15;;;;;;;5.32;2.28;;;17.40;99.90;;;;;;5068730;28;20106;-75
2022/08/31 06:04:02;;;;;;;7.05;2.75;;;17.60;99.90;;;;;;5049611;28;20386;-73
2022/08/31 06:06:29;;;;;;;9.00;3.22;;;17.60;99.90;;;;;;5052792;28;20040;-80
2022/08/31 06:08:56;;;;;;;5.10;2.90;;;17.70;99.90;;;;;;5052701;28;20024;-81
2022/08/31 06:11:25;;;;;;;8.65;2.88;;;17.60;99.90;;;;;;5052523;28;20543;-80
2022/08/31 06:13:54;;;;;;;5.88;2.50;;;17.50;99.90;;;;;;5052573;28;20074;-82
2022/08/31 06:16:21;;;;;;;10.90;2.53;;;17.60;99.90;;;;;;5052182;28;20439;-80
2022/08/31 06:18:50;;;;;;;6.72;2.90;;;17.70;99.90;;;;;;5052786;28;20029;-81
2022/08/31 06:21:20;;;;;;;4.45;2.97;;;17.80;99.90;;;;;;5052448;28;20473;-79
2022/08/31 06:23:48;;;;;;;4.90;2.35;;;17.90;99.90;;;;;;5033625;28;20033;-80
2022/08/31 06:26:17;;;;;;;6.30;2.70;;;17.80;99.90;;;;;;5051802;28;20125;-78
2022/08/31 06:28:46;;;;;;;5.10;2.60;;;17.80;99.90;;;;;;5044534;28;20033;-79
2022/08/31 06:31:20;;;;;;;6.05;2.33;;;17.90;99.90;;;;;;5053256;28;20428;-79
2022/08/31 06:33:47;;;;;;;21.80;3.10;;;17.90;99.90;;;;;;5066663;28;20087;-76
2022/08/31 06:36:28;;;;;;;7.65;2.40;;;18.10;99.90;;;;;;5037272;28;20047;-74
2022/08/31 06:39:17;;;;;;;5.60;1.98;;;18.20;99.90;;;;;;5047242;28;20515;-75
2022/08/31 06:41:54;;;;;;;4.05;2.70;;;18.40;99.90;;;;;;5051958;28;20021;-74
2022/08/31 06:44:52;;;;;;;5.57;2.33;;;18.40;99.90;;;;;;5019399;28;20057;-76
2022/08/31 06:47:21;;;;;;;9.00;2.13;;;18.40;99.90;;;;;;5049658;28;20060;-74
2022/08/31 06:49:47;;;;;;;7.53;2.17;;;18.40;99.90;;;;;;5067038;28;20051;-74
2022/08/31 06:52:13;;;;;;;8.25;2.70;;;18.40;99.90;;;;;;5051617;28;20508;-77
2022/08/31 06:54:41;;;;;;;11.80;2.33;;;18.70;99.90;;;;;;5051447;28;20373;-78
2022/08/31 06:57:26;;;;;;;5.38;2.30;;;18.80;99.90;;;;;;5053183;28;20071;-80
2022/08/31 07:00:27;;;;;;;13.00;2.63;;;18.90;99.90;;;;;;4972177;28;20027;-71
2022/08/31 07:03:23;;;;;;;4.72;2.30;;;18.90;99.90;;;;;;5040212;28;20033;-79
2022/08/31 07:05:53;;;;;;;8.63;2.72;;;18.70;99.90;;;;;;5051933;28;20025;-76
2022/08/31 07:08:20;;;;;;;23.20;3.40;;;18.90;99.90;;;;;;5068564;28;20048;-80
2022/08/31 07:10:47;;;;;;;8.52;2.40;;;19.00;99.90;;;;;;5051001;28;20036;-82
2022/08/31 07:13:13;;;;;;;34.50;16.23;;;19.20;99.90;;;;;;5051272;28;20025;-84
2022/08/31 07:15:39;;;;;;;9.07;3.47;;;19.40;99.90;;;;;;5051516;28;20029;-82
2022/08/31 07:18:06;;;;;;;12.75;2.47;;;19.50;99.90;;;;;;5051349;28;20018;-81
2022/08/31 07:20:33;;;;;;;5.90;2.17;;;19.60;99.90;;;;;;5051372;28;20032;-81
2022/08/31 07:22:59;;;;;;;6.43;2.40;;;19.80;99.90;;;;;;5051348;28;20384;-78
2022/08/31 07:25:38;;;;;;;12.15;2.15;;;20.00;99.90;;;;;;5051262;28;20028;-81
2022/08/31 07:28:04;;;;;;;27.77;3.10;;;19.70;99.90;;;;;;5051304;28;20036;-82
2022/08/31 07:30:37;;;;;;;9.15;2.85;;;19.70;99.90;;;;;;5051268;28;20112;-78
2022/08/31 07:33:05;;;;;;;11.55;2.80;;;19.90;99.90;;;;;;5066570;28;20035;-75
2022/08/31 07:35:33;;;;;;;14.82;8.98;;;20.10;99.90;;;;;;5069128;28;20029;-79
2022/08/31 07:43:38;;;;;;;11.65;2.50;;;20.20;99.90;;;;;;5061474;28;20036;-74
2022/08/31 07:46:05;;;;;;;5.78;2.22;;;20.00;99.90;;;;;;5050549;28;20020;-75
2022/08/31 07:48:33;;;;;;;9.63;2.92;;;20.00;99.90;;;;;;5063940;28;20052;-75
2022/08/31 07:51:06;;;;;;;6.82;2.22;;;20.20;99.90;;;;;;5048994;28;20105;-75
2022/08/31 07:53:52;;;;;;;4.18;2.20;;;20.20;99.90;;;;;;5052582;28;20040;-74
2022/08/31 07:56:45;;;;;;;8.77;2.70;;;20.40;99.90;;;;;;5049539;28;20123;-74
2022/08/31 07:59:13;;;;;;;8.40;2.50;;;20.30;99.90;;;;;;5048599;28;20025;-75
2022/08/31 08:01:41;;;;;;;7.05;2.70;;;20.30;99.90;;;;;;5032908;28;20021;-76
2022/08/31 08:04:18;;;;;;;6.35;2.45;;;20.40;99.90;;;;;;5060483;28;20104;-75
2022/08/31 08:07:11;;;;;;;13.77;2.25;;;20.60;99.90;;;;;;5018445;28;20029;-74
2022/08/31 08:09:39;;;;;;;6.97;2.40;;;21.20;99.90;;;;;;5051289;28;20461;-75
2022/08/31 08:12:19;;;;;;;4.85;2.30;;;21.30;99.90;;;;;;5048526;28;20036;-73
2022/08/31 08:14:57;;;;;;;6.68;2.17;;;20.70;99.90;;;;;;5067277;28;20040;-74
2022/08/31 08:17:35;;;;;;;4.38;1.83;;;21.10;99.90;;;;;;5067387;28;20381;-76
2022/08/31 08:20:08;;;;;;;11.50;2.65;;;21.00;99.90;;;;;;5034887;28;20033;-76
2022/08/31 08:22:38;;;;;;;12.10;2.33;;;20.90;99.90;;;;;;5054426;28;20025;-74
2022/08/31 08:25:22;;;;;;;10.63;3.33;;;21.10;99.90;;;;;;5052935;28;20062;-74
2022/08/31 08:28:10;;;;;;;5.30;2.60;;;20.90;99.90;;;;;;5049744;28;20052;-72
2022/08/31 08:30:39;;;;;;;11.68;3.05;;;20.90;99.90;;;;;;5065433;28;20021;-71
2022/08/31 08:33:05;;;;;;;4.82;2.05;;;21.10;99.90;;;;;;5070891;28;20017;-74
2022/08/31 08:35:34;;;;;;;11.45;3.55;;;21.20;99.90;;;;;;5054277;28;20033;-79
2022/08/31 08:38:01;;;;;;;8.13;2.50;;;21.30;99.90;;;;;;5037978;28;20017;-71
2022/08/31 08:40:41;;;;;;;4.18;2.42;;;21.10;99.90;;;;;;5048772;28;20024;-73
2022/08/31 08:43:13;;;;;;;8.73;2.83;;;21.30;99.90;;;;;;5054359;28;20021;-72
2022/08/31 08:45:39;;;;;;;18.55;3.20;;;21.70;99.90;;;;;;5055214;28;20021;-74
2022/08/31 08:48:08;;;;;;;11.38;2.70;;;21.90;99.90;;;;;;5054040;28;20032;-72
2022/08/31 08:50:37;;;;;;;15.35;2.63;;;21.70;99.90;;;;;;5054018;28;20021;-77
2022/08/31 08:53:09;;;;;;;49.70;6.35;;;21.70;99.90;;;;;;5053974;28;20025;-75
2022/08/31 08:55:40;;;;;;;14.57;3.42;;;21.70;99.90;;;;;;5053111;28;20553;-71
2022/08/31 08:58:09;;;;;;;9.05;2.60;;;21.30;99.90;;;;;;5053999;28;20029;-75
2022/08/31 09:00:41;;;;;;;5.75;2.45;;;21.00;99.90;;;;;;5053717;28;20031;-73
2022/08/31 09:03:16;;;;;;;11.25;3.10;;;21.20;99.90;;;;;;5053803;28;20370;-74
2022/08/31 09:06:01;;;;;;;10.05;2.55;;;21.10;99.90;;;;;;5068687;28;20459;-75
2022/08/31 09:08:42;;;;;;;12.00;2.90;;;21.30;99.90;;;;;;5051468;28;20420;-79
2022/08/31 09:11:26;;;;;;;9.93;2.30;;;21.60;99.90;;;;;;5037051;28;20098;-79
2022/08/31 09:14:04;;;;;;;20.52;9.73;;;21.70;99.90;;;;;;5053454;28;20495;-79
2022/08/31 09:17:04;;;;;;;11.00;3.17;;;22.10;99.90;;;;;;5053123;28;20048;-83
2022/08/31 09:19:57;;;;;;;13.35;2.50;;;22.30;99.90;;;;;;5055442;28;20105;-84
2022/08/31 09:22:19;;;;;;;10.57;2.42;;;22.50;99.90;;;;;;5069627;28;20178;-84
2022/08/31 09:24:50;;;;;;;10.60;3.03;;;22.90;99.90;;;;;;5070295;28;20028;-83
2022/08/31 09:27:45;;;;;;;13.07;2.60;;;23.10;99.90;;;;;;5050514;28;20158;-81
2022/08/31 09:30:16;;;;;;;10.65;2.60;;;23.30;99.80;;;;;;5052545;28;20175;-85
2022/08/31 09:32:54;;;;;;;8.95;2.53;;;23.40;99.40;;;;;;5055423;28;20016;-84
2022/08/31 09:35:32;;;;;;;6.47;2.67;;;23.50;99.20;;;;;;5055389;28;20453;-84
2022/08/31 09:38:02;;;;;;;17.20;2.40;;;23.80;99.30;;;;;;5054223;28;20025;-83
2022/08/31 09:40:42;;;;;;;7.07;2.28;;;24.00;98.70;;;;;;5054419;28;20116;-81
2022/08/31 09:43:26;;;;;;;79.28;56.20;;;24.10;98.60;;;;;;5054777;28;20124;-81
2022/08/31 09:46:04;;;;;;;12.60;2.50;;;23.90;98.90;;;;;;5051338;28;20025;-83
2022/08/31 09:48:44;;;;;;;5.18;1.95;;;23.50;98.80;;;;;;5052846;28;20477;-78
2022/08/31 09:51:20;;;;;;;4.93;1.98;;;23.70;99.30;;;;;;5054156;28;20021;-79
2022/08/31 09:56:31;;;;;;;7.13;2.88;;;23.80;99.10;;;;;;5053570;28;20029;-80
2022/08/31 09:59:04;;;;;;;9.95;4.10;;;24.10;98.50;;;;;;5054414;28;20184;-83
2022/08/31 10:01:45;;;;;;;5.88;2.30;;;23.90;98.70;;;;;;5054136;28;20100;-82
2022/08/31 10:04:15;;;;;;;9.73;3.00;;;23.80;98.60;;;;;;5054099;28;20021;-75
2022/08/31 10:07:05;;;;;;;6.37;2.47;;;24.10;98.90;;;;;;5053339;28;20029;-74
2022/08/31 10:09:49;;;;;;;5.13;2.08;;;24.10;98.20;;;;;;5054052;28;20279;-76
2022/08/31 10:12:28;;;;;;;7.38;2.20;;;24.50;98.00;;;;;;5040754;28;20036;-77
2022/08/31 10:15:02;;;;;;;18.58;6.38;;;24.70;97.90;;;;;;5045155;28;20029;-78
2022/08/31 10:17:39;;;;;;;6.72;2.33;;;24.80;97.60;;;;;;5053506;28;20033;-78
2022/08/31 10:20:11;;;;;;;6.38;2.17;;;24.60;97.10;;;;;;5048490;28;20028;-77
2022/08/31 10:22:45;;;;;;;10.15;2.35;;;24.60;97.20;;;;;;5053046;28;20091;-77
2022/08/31 10:25:22;;;;;;;8.13;2.40;;;24.90;97.60;;;;;;5053081;28;21166;-80
2022/08/31 10:28:02;;;;;;;6.68;2.70;;;24.80;96.70;;;;;;5053200;28;20041;-81
2022/08/31 10:30:49;;;;;;;5.15;2.30;;;24.80;96.90;;;;;;5051909;28;20025;-78
2022/08/31 10:36:35;;;;;;;45.10;38.95;;;24.70;98.00;;;;;;5051640;28;20493;-79
2022/08/31 10:39:02;;;;;;;10.05;2.75;;;24.80;97.10;;;;;;5053223;28;20039;-82
2022/08/31 10:41:36;;;;;;;14.45;2.55;;;25.00;96.50;;;;;;5050389;28;20029;-82
2022/08/31 10:44:22;;;;;;;4.07;1.73;;;24.90;96.40;;;;;;5044519;28;20025;-82
2022/08/31 10:47:01;;;;;;;8.20;2.30;;;25.10;96.40;;;;;;5051642;28;20432;-81
2022/08/31 10:49:28;;;;;;;10.35;1.92;;;25.40;96.20;;;;;;5052959;28;20037;-82
2022/08/31 10:52:16;;;;;;;10.57;2.15;;;25.50;96.00;;;;;;5051718;28;20020;-83
2022/08/31 10:54:53;;;;;;;9.77;1.77;;;25.80;95.60;;;;;;5052941;28;20519;-85
2022/08/31 10:57:33;;;;;;;4.85;2.10;;;25.70;95.30;;;;;;5052920;28;20029;-82
2022/08/31 11:00:44;;;;;;;5.78;1.95;;;25.80;95.20;;;;;;5052884;28;20027;-83
2022/08/31 11:03:23;;;;;;;8.90;2.45;;;25.50;95.30;;;;;;5043873;28;20045;-84
2022/08/31 11:06:21;;;;;;;7.28;2.30;;;25.70;95.70;;;;;;5053558;28;20021;-78
2022/08/31 11:09:05;;;;;;;10.15;1.92;;;25.80;95.20;;;;;;5053385;28;20033;-83
2022/08/31 11:11:56;;;;;;;15.93;3.20;;;26.20;95.00;;;;;;5052993;28;20025;-85
2022/08/31 11:14:43;;;;;;;14.52;2.25;;;25.90;94.90;;;;;;5052884;28;20517;-78
2022/08/31 11:17:31;;;;;;;9.15;2.92;;;26.10;95.50;;;;;;5051100;28;20025;-76
2022/08/31 11:20:30;;;;;;;12.68;3.63;;;25.80;94.80;;;;;;5068006;28;20029;-81
2022/08/31 11:23:28;;;;;;;6.30;2.97;;;25.70;95.30;;;;;;5029987;28;20048;-82
2022/08/31 11:26:32;;;;;;;7.70;3.00;;;25.50;95.60;;;;;;5023379;28;20442;-81
2022/08/31 11:29:12;;;;;;;6.07;2.55;;;25.70;96.10;;;;;;5053134;28;20036;-83
2022/08/31 11:31:39;;;;;;;10.13;3.08;;;25.60;95.30;;;;;;5053162;28;20021;-77
2022/08/31 11:34:45;;;;;;;11.70;6.25;;;25.70;95.60;;;;;;5049432;28;20036;-78
2022/08/31 11:37:32;;;;;;;8.40;2.90;;;25.30;95.40;;;;;;5052117;28;20075;-74
2022/08/31 11:39:58;;;;;;;7.25;2.60;;;25.70;95.30;;;;;;5043037;28;20191;-75
2022/08/31 11:42:27;;;;;;;12.43;2.67;;;26.20;95.10;;;;;;5051933;28;20107;-76
2022/08/31 11:45:13;;;;;;;6.95;3.00;;;26.60;94.90;;;;;;5052410;28;20037;-78
2022/08/31 11:47:42;;;;;;;11.93;2.70;;;26.50;94.50;;;;;;5052386;28;20104;-87
2022/08/31 11:50:49;;;;;;;11.93;3.88;;;27.00;93.90;;;;;;5051451;28;20060;-85
2022/08/31 11:53:30;;;;;;;7.90;3.47;;;25.90;95.00;;;;;;5022138;28;20048;-83
2022/08/31 11:56:00;;;;;;;4.68;3.20;;;26.50;94.50;;;;;;5053876;28;20033;-83
2022/08/31 11:58:31;;;;;;;7.20;3.03;;;26.90;94.20;;;;;;5056081;28;20033;-81
2022/08/31 12:01:09;;;;;;;9.77;3.42;;;27.10;93.80;;;;;;5055248;28;20060;-82
2022/08/31 12:04:02;;;;;;;8.70;3.42;;;27.10;93.70;;;;;;5055766;28;20017;-81
2022/08/31 12:06:28;;;;;;;7.45;2.92;;;26.80;93.60;;;;;;5051436;28;20493;-82
2022/08/31 12:09:22;;;;;;;11.77;4.32;;;27.00;94.10;;;;;;5056098;28;20022;-85
2022/08/31 12:12:05;;;;;;;15.48;3.13;;;26.80;94.20;;;;;;5055969;28;20032;-81
2022/08/31 12:14:48;;;;;;;13.95;3.75;;;26.90;94.30;;;;;;5055937;28;20040;-80
2022/08/31 12:17:32;;;;;;;10.38;4.10;;;26.60;94.30;;;;;;5055120;28;20031;-82
2022/08/31 12:20:25;;;;;;;13.40;3.33;;;26.70;94.00;;;;;;5055609;28;20489;-82
2022/08/31 12:23:35;;;;;;;12.38;3.95;;;27.30;93.60;;;;;;5055933;28;20036;-82
2022/08/31 12:26:19;;;;;;;10.50;3.72;;;27.50;93.20;;;;;;5045621;28;20027;-81
2022/08/31 12:29:08;;;;;;;11.80;3.72;;;27.70;93.00;;;;;;5065589;28;20116;-81
2022/08/31 12:31:38;;;;;;;10.25;3.72;;;28.10;92.90;;;;;;5054292;28;20104;-81
2022/08/31 12:34:06;;;;;;;14.38;3.83;;;28.80;92.30;;;;;;5055349;28;20466;-79
2022/08/31 12:36:35;;;;;;;10.38;3.75;;;28.50;91.80;;;;;;5055625;28;20033;-79
2022/08/31 12:39:10;;;;;;;9.27;3.15;;;28.30;92.10;;;;;;5055322;28;20079;-80
2022/08/31 12:41:41;;;;;;;10.63;3.70;;;28.80;92.20;;;;;;5067569;28;20052;-80
2022/08/31 12:44:08;;;;;;;25.88;4.45;;;29.70;91.20;;;;;;5054074;28;20374;-80
2022/08/31 12:46:52;;;;;;;7.85;3.70;;;29.20;90.70;;;;;;5055422;28;20025;-80
2022/08/31 12:49:48;;;;;;;16.88;3.70;;;28.10;92.10;;;;;;5053181;28;20475;-79
2022/08/31 12:52:48;;;;;;;27.15;16.45;;;28.70;91.80;;;;;;5050576;28;20029;-81
2022/08/31 12:55:36;;;;;;;15.25;4.00;;;29.00;91.00;;;;;;5054602;28;20029;-83
2022/08/31 12:58:23;;;;;;;14.30;4.10;;;28.90;91.30;;;;;;5054365;28;20037;-80
2022/08/31 13:00:49;;;;;;;13.68;4.05;;;28.90;91.60;;;;;;5049856;28;20065;-78
2022/08/31 13:03:30;;;;;;;8.75;3.13;;;28.30;91.80;;;;;;5055517;28;20059;-83
2022/08/31 13:06:12;;;;;;;9.60;3.70;;;29.70;90.80;;;;;;5071721;28;20033;-90
2022/08/31 13:08:48;;;;;;;7.13;3.65;;;31.30;88.70;;;;;;5045913;28;20263;-89
2022/08/31 13:11:30;;;;;;;12.60;3.50;;;30.60;88.80;;;;;;5062311;28;20040;-89
2022/08/31 13:14:23;;;;;;;8.93;3.60;;;31.10;88.60;;;;;;5058449;28;20021;-86
2022/08/31 13:16:54;;;;;;;18.17;4.15;;;30.50;88.40;;;;;;5053347;28;20090;-73
2022/08/31 13:19:29;;;;;;;10.43;3.30;;;31.20;88.00;;;;;;5054656;28;20036;-75
2022/08/31 13:21:56;;;;;;;7.22;3.30;;;31.00;88.20;;;;;;5049143;28;20022;-75
2022/08/31 13:24:29;;;;;;;10.48;2.85;;;32.20;86.70;;;;;;5054255;28;20020;-75
2022/08/31 13:27:03;;;;;;;9.90;3.58;;;33.30;85.10;;;;;;5053882;28;20052;-75
2022/08/31 13:29:28;;;;;;;12.23;4.60;;;32.70;83.50;;;;;;5053960;28;20167;-78
2022/08/31 13:31:54;;;;;;;8.95;3.85;;;31.80;84.40;;;;;;5054428;28;20108;-75
2022/08/31 13:34:22;;;;;;;15.73;4.40;;;30.90;85.20;;;;;;5054529;28;20018;-77